Time;durP1;ratioP1;P1;durP2;ratioP2;P2;SDS_P1;SDS_P2;PMS_P1;PMS_P2;Temp;Humidity;BMP_temperature;BMP_pressure;BME280_temperature;BME280_humidity;BME280_pressure;Samples;Min_cycle;Max_cycle;Signal;HPM_P1;HPM_P2
2024/01/28 00:00:43;;;;;;;16.63;9.97;;;;;;;-1.13;100.00;103051.06;5001439;28;20084;-63
2024/01/28 00:03:08;;;;;;;17.80;11.10;;;;;;;-1.09;100.00;103055.78;4975901;28;20451;-63
2024/01/28 00:05:34;;;;;;;16.07;10.50;;;;;;;-1.06;100.00;103047.59;4994835;28;20068;-64
2024/01/28 00:08:00;;;;;;;17.23;10.43;;;;;;;-1.02;100.00;103049.75;4992511;28;20026;-64
2024/01/28 00:10:25;;;;;;;16.10;9.70;;;;;;;-1.01;100.00;103049.94;4989326;28;20244;-63
2024/01/28 00:12:51;;;;;;;20.70;9.73;;;;;;;-0.98;100.00;103046.84;4988713;28;20026;-63
2024/01/28 00:15:17;;;;;;;18.90;10.17;;;;;;;-0.97;100.00;103039.38;4988997;28;20675;-63
2024/01/28 00:17:42;;;;;;;17.17;9.07;;;;;;;-0.96;100.00;103035.19;4988424;28;20057;-63
2024/01/28 00:20:09;;;;;;;14.93;8.70;;;;;;;-0.94;100.00;103032.81;4981036;28;20031;-64
2024/01/28 00:22:34;;;;;;;16.60;9.00;;;;;;;-0.95;100.00;103036.13;4969635;28;20027;-64
2024/01/28 00:24:59;;;;;;;16.47;8.13;;;;;;;-0.95;100.00;103025.94;4988491;28;20037;-63
2024/01/28 00:27:25;;;;;;;15.47;8.40;;;;;;;-0.97;100.00;103029.19;4985173;28;20029;-64
2024/01/28 00:29:51;;;;;;;18.40;9.73;;;;;;;-0.95;100.00;103016.63;4982804;28;20065;-64
2024/01/28 00:32:16;;;;;;;17.13;8.43;;;;;;;-0.90;100.00;103029.91;4988053;28;20475;-63
2024/01/28 00:34:41;;;;;;;16.00;9.10;;;;;;;-0.87;100.00;103026.06;4981035;28;20037;-64
2024/01/28 00:37:07;;;;;;;12.33;7.93;;;;;;;-0.88;100.00;103024.25;4993085;28;20189;-64
2024/01/28 00:39:32;;;;;;;13.63;8.63;;;;;;;-0.86;100.00;103024.41;4995768;28;20034;-64
2024/01/28 00:41:58;;;;;;;15.97;8.43;;;;;;;-0.87;100.00;103025.16;4977385;28;20424;-64
2024/01/28 00:44:23;;;;;;;16.37;8.27;;;;;;;-0.88;100.00;103023.34;4986095;28;20455;-64
2024/01/28 00:46:48;;;;;;;13.90;8.50;;;;;;;-0.91;100.00;103016.25;4987767;28;20042;-63
2024/01/28 00:49:14;;;;;;;15.50;9.93;;;;;;;-0.93;100.00;103014.25;4984099;28;20030;-64
2024/01/28 00:51:40;;;;;;;15.53;8.00;;;;;;;-0.97;100.00;103008.81;4995203;28;20038;-63
2024/01/28 00:54:05;;;;;;;13.27;8.03;;;;;;;-0.97;100.00;103001.19;4986340;28;20019;-63
2024/01/28 00:56:30;;;;;;;16.17;8.33;;;;;;;-0.99;100.00;102999.22;4992241;28;20033;-64
2024/01/28 00:58:55;;;;;;;13.53;8.63;;;;;;;-1.00;100.00;102998.28;4982071;28;20061;-64
2024/01/28 01:01:21;;;;;;;22.07;8.30;;;;;;;-1.02;100.00;102992.13;4972622;28;20093;-63
2024/01/28 01:03:47;;;;;;;12.63;8.07;;;;;;;-1.03;100.00;102991.94;4987181;28;20502;-64
2024/01/28 01:06:12;;;;;;;16.23;8.73;;;;;;;-1.06;100.00;102987.41;4980267;28;20027;-64
2024/01/28 01:08:38;;;;;;;14.90;8.17;;;;;;;-1.07;100.00;102990.69;4974695;28;20035;-64
2024/01/28 01:11:05;;;;;;;14.47;8.50;;;;;;;-1.07;100.00;102985.59;4979441;28;20039;-63
2024/01/28 01:13:32;;;;;;;13.83;8.57;;;;;;;-1.05;100.00;102989.22;4982963;28;20394;-63
2024/01/28 01:15:57;;;;;;;14.53;7.77;;;;;;;-1.06;100.00;102986.53;4982955;28;20383;-64
2024/01/28 01:18:23;;;;;;;14.27;8.87;;;;;;;-1.09;100.00;102981.97;4973493;28;20037;-63
2024/01/28 01:20:49;;;;;;;12.70;8.13;;;;;;;-1.09;100.00;102976.88;4975336;28;20121;-63
2024/01/28 01:23:14;;;;;;;14.30;8.23;;;;;;;-1.09;100.00;102977.78;4989901;28;20026;-64
2024/01/28 01:25:40;;;;;;;11.00;8.77;;;;;;;-1.08;100.00;102978.72;4973833;28;20427;-64
2024/01/28 01:28:05;;;;;;;13.70;8.23;;;;;;;-1.06;100.00;102976.34;4998152;28;20022;-64
2024/01/28 01:30:31;;;;;;;13.30;8.23;;;;;;;-1.05;100.00;102973.97;4995223;28;20105;-64
2024/01/28 01:32:56;;;;;;;16.80;8.57;;;;;;;-1.06;100.00;102984.84;4995659;28;20596;-64
2024/01/28 01:35:21;;;;;;;14.73;8.90;;;;;;;-1.04;100.00;102974.88;4984824;28;20261;-64
2024/01/28 01:37:47;;;;;;;20.23;9.90;;;;;;;-1.06;100.00;102974.69;4987701;28;20045;-63
2024/01/28 01:40:14;;;;;;;20.20;9.43;;;;;;;-1.09;100.00;102969.25;4986537;28;20429;-63
2024/01/28 01:42:40;;;;;;;17.77;9.60;;;;;;;-1.09;100.00;102967.63;4987480;28;20079;-64
2024/01/28 01:45:06;;;;;;;14.87;8.33;;;;;;;-1.13;100.00;102969.63;4998137;28;20030;-64
2024/01/28 01:47:32;;;;;;;21.23;10.13;;;;;;;-1.15;100.00;102969.44;4976472;28;20077;-63
2024/01/28 01:49:57;;;;;;;16.17;10.13;;;;;;;-1.19;100.00;102974.03;4985314;28;20510;-64
2024/01/28 01:52:23;;;;;;;16.67;9.77;;;;;;;-1.23;100.00;102973.69;4968654;28;20033;-63
2024/01/28 01:54:51;;;;;;;13.70;8.70;;;;;;;-1.23;100.00;102978.78;4983386;28;20036;-63
2024/01/28 01:57:16;;;;;;;16.80;9.27;;;;;;;-1.23;100.00;102981.31;4992324;28;20451;-64
2024/01/28 01:59:42;;;;;;;15.13;8.47;;;;;;;-1.25;100.00;102980.22;4972325;28;20066;-63
2024/01/28 02:02:10;;;;;;;15.63;10.03;;;;;;;-1.26;100.00;102980.94;4987487;28;20038;-63
2024/01/28 02:04:36;;;;;;;13.60;8.90;;;;;;;-1.26;100.00;102977.50;4986367;28;20034;-64
2024/01/28 02:07:02;;;;;;;14.57;8.83;;;;;;;-1.27;100.00;102978.22;4985982;28;20029;-63
2024/01/28 02:09:28;;;;;;;16.57;8.93;;;;;;;-1.29;100.00;102983.13;4987219;28;20089;-63
2024/01/28 02:11:53;;;;;;;16.00;8.27;;;;;;;-1.31;100.00;102988.81;4986515;28;20266;-63
2024/01/28 02:14:29;;;;;;;12.53;8.43;;;;;;;-1.34;100.00;102986.78;4986654;28;20542;-63
2024/01/28 02:16:55;;;;;;;15.50;9.20;;;;;;;-1.35;100.00;102977.38;4984326;28;20801;-64
2024/01/28 02:19:20;;;;;;;15.57;9.00;;;;;;;-1.35;100.00;102992.63;4966286;28;20031;-63
2024/01/28 02:21:45;;;;;;;17.97;9.07;;;;;;;-1.39;100.00;102980.28;4969990;28;20501;-63
2024/01/28 02:24:13;;;;;;;15.27;8.20;;;;;;;-1.40;100.00;102970.84;4977442;28;20031;-63
2024/01/28 02:26:39;;;;;;;16.47;8.17;;;;;;;-1.45;100.00;102963.56;4969649;28;20038;-64
2024/01/28 02:29:04;;;;;;;12.67;7.60;;;;;;;-1.49;100.00;102961.41;4986016;28;20486;-63
2024/01/28 02:31:29;;;;;;;12.67;7.80;;;;;;;-1.52;100.00;102942.34;4985364;28;20034;-63
2024/01/28 02:33:55;;;;;;;13.47;7.70;;;;;;;-1.59;100.00;102945.81;4995156;28;20545;-63
2024/01/28 02:36:20;;;;;;;13.23;8.00;;;;;;;-1.66;100.00;102938.22;5002470;28;20022;-63
2024/01/28 02:38:46;;;;;;;16.83;7.93;;;;;;;-1.66;100.00;102933.13;4987301;28;20026;-63
2024/01/28 02:41:11;;;;;;;12.87;8.23;;;;;;;-1.69;100.00;102934.56;4985897;28;20113;-63
2024/01/28 02:43:36;;;;;;;16.87;9.73;;;;;;;-1.69;100.00;102928.56;4986593;28;20039;-64
2024/01/28 02:46:02;;;;;;;12.53;8.30;;;;;;;-1.73;100.00;102923.88;4972193;28;20076;-64
2024/01/28 02:48:27;;;;;;;16.37;8.80;;;;;;;-1.76;100.00;102921.88;4977027;28;20648;-63
2024/01/28 02:50:52;;;;;;;15.47;8.97;;;;;;;-1.82;100.00;102916.09;4974696;28;20076;-63
2024/01/28 02:53:17;;;;;;;12.57;7.83;;;;;;;-1.83;100.00;102921.88;4982432;28;20081;-64
2024/01/28 02:55:43;;;;;;;16.97;8.07;;;;;;;-1.85;100.00;102920.81;4991875;28;20030;-63
2024/01/28 02:58:08;;;;;;;14.67;7.63;;;;;;;-1.86;100.00;102913.91;4984848;28;20628;-63
2024/01/28 03:00:35;;;;;;;12.90;8.03;;;;;;;-1.86;100.00;102914.84;4976875;28;20022;-63
2024/01/28 03:03:03;;;;;;;16.07;8.40;;;;;;;-1.85;100.00;102915.72;4977747;28;20019;-63
2024/01/28 03:05:29;;;;;;;10.93;7.17;;;;;;;-1.85;100.00;102915.72;4977800;28;20106;-63
2024/01/28 03:07:54;;;;;;;10.90;6.90;;;;;;;-1.84;100.00;102912.47;4989373;28;20515;-63
2024/01/28 03:10:19;;;;;;;11.73;7.70;;;;;;;-1.87;100.00;102918.09;4983480;28;20081;-63
2024/01/28 03:12:45;;;;;;;12.93;7.53;;;;;;;-1.88;100.00;102917.91;4982760;28;20489;-64
2024/01/28 03:15:10;;;;;;;15.33;9.17;;;;;;;-1.89;100.00;102918.66;4983605;28;20028;-63
2024/01/28 03:17:35;;;;;;;15.13;7.77;;;;;;;-1.91;100.00;102910.84;4994501;28;20525;-63
2024/01/28 03:20:00;;;;;;;13.83;7.50;;;;;;;-1.92;100.00;102900.50;4988845;28;20022;-63
2024/01/28 03:22:26;;;;;;;13.57;7.77;;;;;;;-1.95;100.00;102904.50;4989597;28;20018;-63
2024/01/28 03:24:52;;;;;;;13.87;7.20;;;;;;;-1.98;100.00;102898.16;4993773;28;20061;-63
2024/01/28 03:27:17;;;;;;;13.53;7.07;;;;;;;-1.99;100.00;102897.25;4993760;28;20034;-63
2024/01/28 03:29:42;;;;;;;13.30;7.00;;;;;;;-2.02;100.00;102896.91;4983534;28;20231;-63
2024/01/28 03:32:07;;;;;;;12.07;6.50;;;;;;;-2.05;100.00;102887.25;5005351;28;20037;-63
2024/01/28 03:34:33;;;;;;;11.93;7.57;;;;;;;-2.07;100.00;102895.47;5004270;28;20386;-63
2024/01/28 03:36:58;;;;;;;13.77;6.60;;;;;;;-2.08;100.00;102901.25;4996954;28;20026;-63
2024/01/28 03:39:24;;;;;;;12.80;6.80;;;;;;;-2.11;100.00;102901.81;4988512;28;20023;-64
2024/01/28 03:41:49;;;;;;;11.07;6.70;;;;;;;-2.11;100.00;102900.91;4989315;28;20030;-63
2024/01/28 03:44:19;;;;;;;10.67;6.87;;;;;;;-2.13;100.00;102894.72;4991359;28;20501;-63
2024/01/28 03:46:44;;;;;;;11.80;7.37;;;;;;;-2.13;100.00;102898.19;4990179;28;20042;-63
2024/01/28 03:49:10;;;;;;;14.73;7.00;;;;;;;-2.14;100.00;102903.09;4990076;28;20033;-63
2024/01/28 03:51:35;;;;;;;12.90;6.13;;;;;;;-2.15;100.00;102899.63;4980509;28;20026;-63
2024/01/28 03:54:00;;;;;;;10.70;7.53;;;;;;;-2.17;100.00;102901.09;4989228;28;20027;-63
2024/01/28 03:56:26;;;;;;;13.33;7.33;;;;;;;-2.19;100.00;102893.28;4992895;28;20029;-63
2024/01/28 03:58:51;;;;;;;11.20;6.50;;;;;;;-2.20;100.00;102888.94;4985096;28;20022;-64
2024/01/28 04:01:16;;;;;;;16.00;7.40;;;;;;;-2.21;100.00;102882.03;4993127;28;20079;-63
2024/01/28 04:03:42;;;;;;;11.27;6.93;;;;;;;-2.21;100.00;102879.50;4989067;28;20410;-63
2024/01/28 04:06:07;;;;;;;12.63;6.83;;;;;;;-2.22;100.00;102880.22;4989060;28;20075;-64
2024/01/28 04:08:32;;;;;;;13.83;6.83;;;;;;;-2.23;100.00;102880.94;4982621;28;20034;-63
2024/01/28 04:10:57;;;;;;;16.40;8.70;;;;;;;-2.21;100.00;102879.50;4969454;28;20029;-63
2024/01/28 04:13:23;;;;;;;14.63;6.67;;;;;;;-2.21;100.00;102873.50;4975035;28;20518;-63
2024/01/28 04:15:48;;;;;;;11.43;8.07;;;;;;;-2.22;100.00;102886.94;4989044;28;20424;-63
2024/01/28 04:18:13;;;;;;;12.13;7.20;;;;;;;-2.23;100.00;102885.13;4989565;28;20105;-63
2024/01/28 04:20:38;;;;;;;12.43;7.33;;;;;;;-2.24;100.00;102886.75;4988402;28;20381;-63
2024/01/28 04:23:04;;;;;;;11.93;6.90;;;;;;;-2.22;100.00;102885.31;4981837;28;20057;-63
2024/01/28 04:25:29;;;;;;;13.87;7.07;;;;;;;-2.21;100.00;102873.50;4973255;28;20031;-64
2024/01/28 04:27:55;;;;;;;17.07;7.70;;;;;;;-2.21;100.00;102871.88;4989552;28;20038;-63
2024/01/28 04:30:20;;;;;;;13.70;6.87;;;;;;;-2.20;100.00;102867.69;4981206;28;20081;-63
2024/01/28 04:32:45;;;;;;;12.30;7.03;;;;;;;-2.20;100.00;102866.06;4987753;28;20018;-64
2024/01/28 04:35:14;;;;;;;14.27;7.47;;;;;;;-2.21;100.00;102858.25;4994490;28;20018;-63
2024/01/28 04:37:40;;;;;;;15.57;6.70;;;;;;;-2.20;100.00;102865.16;4980580;28;20018;-63
2024/01/28 04:40:06;;;;;;;11.77;6.13;;;;;;;-2.24;100.00;102858.81;4997587;28;20497;-63
2024/01/28 04:42:32;;;;;;;9.93;6.00;;;;;;;-2.27;100.00;102861.00;4988289;28;20037;-63
2024/01/28 04:44:58;;;;;;;12.50;6.53;;;;;;;-2.29;100.00;102854.84;4984917;28;20136;-63
2024/01/28 04:47:23;;;;;;;10.97;6.67;;;;;;;-2.30;100.00;102853.00;4984954;28;20129;-63
2024/01/28 04:49:48;;;;;;;9.70;6.67;;;;;;;-2.31;100.00;102847.03;4997949;28;20049;-63
2024/01/28 04:52:14;;;;;;;11.23;6.60;;;;;;;-2.32;100.00;102842.66;4993609;28;20057;-63
2024/01/28 04:54:39;;;;;;;10.97;6.53;;;;;;;-2.32;100.00;102834.16;4972374;28;20531;-63
2024/01/28 04:57:04;;;;;;;10.60;5.70;;;;;;;-2.34;100.00;102835.63;4989815;28;20025;-63
2024/01/28 04:59:30;;;;;;;10.30;6.53;;;;;;;-2.33;100.00;102828.16;4974824;28;20049;-63
2024/01/28 05:01:56;;;;;;;11.07;6.77;;;;;;;-2.32;100.00;102835.03;4987983;28;20435;-63
2024/01/28 05:04:21;;;;;;;12.77;6.70;;;;;;;-2.34;100.00;102830.53;4978209;28;20355;-63
2024/01/28 05:06:47;;;;;;;12.13;6.40;;;;;;;-2.34;100.00;102830.53;4991417;28;20017;-63
2024/01/28 05:09:12;;;;;;;15.00;7.07;;;;;;;-2.33;100.00;102837.41;4987343;28;20406;-63
2024/01/28 05:11:38;;;;;;;14.13;6.70;;;;;;;-2.31;100.00;102830.88;4987415;28;20060;-63
2024/01/28 05:14:04;;;;;;;11.03;6.30;;;;;;;-2.28;100.00;102833.78;4968268;28;20081;-64
2024/01/28 05:16:30;;;;;;;12.13;5.97;;;;;;;-2.28;100.00;102836.31;4983935;28;20538;-63
2024/01/28 05:18:56;;;;;;;16.23;8.07;;;;;;;-2.30;100.00;102832.69;4985283;28;20036;-64
2024/01/28 05:21:23;;;;;;;16.53;7.47;;;;;;;-2.31;100.00;102830.88;4978696;28;20022;-63
2024/01/28 05:23:51;;;;;;;8.57;6.37;;;;;;;-2.31;100.00;102831.81;4978929;28;20034;-63
2024/01/28 05:26:17;;;;;;;12.10;6.77;;;;;;;-2.34;100.00;102830.53;4986964;28;20028;-63
2024/01/28 05:28:42;;;;;;;11.23;6.67;;;;;;;-2.34;100.00;102830.53;4979377;28;20401;-63
2024/01/28 05:31:08;;;;;;;10.43;5.87;;;;;;;-2.35;100.00;102824.53;4981371;28;20034;-63
2024/01/28 05:33:37;;;;;;;16.03;6.60;;;;;;;-2.33;100.00;102820.53;4983838;28;20379;-63
2024/01/28 05:36:10;;;;;;;11.23;6.73;;;;;;;-2.31;100.00;102814.00;5002270;28;20029;-63
2024/01/28 05:38:35;;;;;;;11.47;6.27;;;;;;;-2.30;100.00;102813.28;4974225;28;20077;-63
2024/01/28 05:41:01;;;;;;;12.93;6.40;;;;;;;-2.28;100.00;102804.94;4982235;28;20054;-63
2024/01/28 05:43:26;;;;;;;13.00;6.33;;;;;;;-2.28;100.00;102805.81;4980427;28;20015;-63
2024/01/28 05:45:52;;;;;;;13.83;6.53;;;;;;;-2.28;100.00;102795.66;4980341;28;20531;-63
2024/01/28 05:48:17;;;;;;;17.50;7.37;;;;;;;-2.30;100.00;102797.13;4984474;28;20248;-63
2024/01/28 05:50:43;;;;;;;17.10;7.63;;;;;;;-2.31;100.00;102791.16;4997014;28;20022;-64
2024/01/28 05:53:08;;;;;;;14.13;7.47;;;;;;;-2.31;100.00;102797.84;4968189;28;20023;-63
2024/01/28 05:55:33;;;;;;;15.23;7.00;;;;;;;-2.33;100.00;102792.59;4979833;28;20037;-63
2024/01/28 05:57:58;;;;;;;15.67;6.87;;;;;;;-2.33;100.00;102784.97;4983343;28;20494;-63
2024/01/28 06:00:24;;;;;;;12.60;6.60;;;;;;;-2.32;100.00;102788.44;4984020;28;20022;-63
2024/01/28 06:02:49;;;;;;;14.17;6.60;;;;;;;-2.32;100.00;102779.16;4971825;28;20034;-63
2024/01/28 06:05:14;;;;;;;10.87;6.23;;;;;;;-2.31;100.00;102773.38;4987088;28;20522;-63
2024/01/28 06:07:39;;;;;;;12.97;7.20;;;;;;;-2.28;100.00;102770.25;4974923;28;20385;-63
2024/01/28 06:10:05;;;;;;;12.63;6.77;;;;;;;-2.25;100.00;102765.56;4975739;28;20478;-63
2024/01/28 06:12:30;;;;;;;11.97;6.37;;;;;;;-2.24;100.00;102761.34;4974534;28;20427;-63
2024/01/28 06:15:02;;;;;;;13.07;6.33;;;;;;;-2.25;100.00;102757.94;4985957;28;20050;-63
2024/01/28 06:17:27;;;;;;;11.93;5.70;;;;;;;-2.23;100.00;102751.38;4979231;28;20062;-63
2024/01/28 06:19:52;;;;;;;13.67;6.30;;;;;;;-2.26;100.00;102752.66;4979031;28;20061;-63
2024/01/28 06:22:17;;;;;;;12.70;6.03;;;;;;;-2.24;100.00;102762.28;4977679;28;20021;-63
2024/01/28 06:24:44;;;;;;;12.53;6.97;;;;;;;-2.27;100.00;102767.00;4974580;28;20723;-63
2024/01/28 06:27:09;;;;;;;11.63;6.43;;;;;;;-2.27;100.00;102768.63;4972225;28;20537;-63
2024/01/28 06:29:35;;;;;;;15.90;7.37;;;;;;;-2.30;100.00;102761.56;4983196;28;20057;-63
2024/01/28 06:32:00;;;;;;;12.00;6.10;;;;;;;-2.31;100.00;102762.28;4979114;28;20032;-63
2024/01/28 06:34:25;;;;;;;11.07;6.20;;;;;;;-2.30;100.00;102761.56;4990469;28;20046;-63
2024/01/28 06:36:51;;;;;;;10.70;6.93;;;;;;;-2.28;100.00;102754.13;4990947;28;20022;-63
2024/01/28 06:39:16;;;;;;;12.60;6.70;;;;;;;-2.30;100.00;102748.84;4986507;28;20386;-63
2024/01/28 06:41:43;;;;;;;11.87;7.57;;;;;;;-2.30;100.00;102746.31;4983985;28;20027;-63
2024/01/28 06:44:08;;;;;;;15.07;6.20;;;;;;;-2.31;100.00;102744.50;4993462;28;20013;-63
2024/01/28 06:46:34;;;;;;;8.13;5.63;;;;;;;-2.26;100.00;102733.25;4978416;28;20121;-63
2024/01/28 06:48:59;;;;;;;12.00;6.33;;;;;;;-2.28;100.00;102734.69;4985502;28;20030;-63
2024/01/28 06:51:24;;;;;;;10.03;5.93;;;;;;;-2.31;100.00;102742.88;4979127;28;20026;-63
2024/01/28 06:53:51;;;;;;;13.53;6.30;;;;;;;-2.31;100.00;102734.34;4983593;28;20077;-63
2024/01/28 06:56:17;;;;;;;12.30;7.20;;;;;;;-2.33;100.00;102741.81;5007494;28;20783;-63
2024/01/28 06:58:43;;;;;;;13.50;6.03;;;;;;;-2.31;100.00;102741.97;4976316;28;20081;-63
2024/01/28 07:01:10;;;;;;;7.93;5.03;;;;;;;-2.32;100.00;102735.97;4977540;28;20031;-63
2024/01/28 07:03:35;;;;;;;11.30;5.37;;;;;;;-2.35;100.00;102743.25;4970753;28;21110;-63
2024/01/28 07:06:00;;;;;;;12.40;6.07;;;;;;;-2.36;100.00;102741.47;4984924;28;20125;-63
2024/01/28 07:08:26;;;;;;;12.20;6.13;;;;;;;-2.39;100.00;102740.19;4983365;28;20390;-63
2024/01/28 07:10:51;;;;;;;13.17;5.20;;;;;;;-2.42;100.00;102730.56;4976327;28;20030;-63
2024/01/28 07:13:16;;;;;;;13.20;6.00;;;;;;;-2.43;100.00;102737.28;4984153;28;21270;-64
2024/01/28 07:15:41;;;;;;;11.63;6.07;;;;;;;-2.47;100.00;102732.59;4986021;28;20034;-63
2024/01/28 07:18:07;;;;;;;14.00;6.67;;;;;;;-2.48;100.00;102735.84;4985548;28;20473;-63
2024/01/28 07:20:32;;;;;;;8.87;5.60;;;;;;;-2.50;100.00;102737.28;4986018;28;20064;-63
2024/01/28 07:22:57;;;;;;;14.90;6.20;;;;;;;-2.50;100.00;102747.44;4985341;28;20037;-63
2024/01/28 07:25:23;;;;;;;14.30;6.70;;;;;;;-2.50;100.00;102737.28;4977540;28;20105;-63
2024/01/28 07:27:48;;;;;;;9.80;5.77;;;;;;;-2.51;100.00;102740.56;4983741;28;20057;-63
2024/01/28 07:30:13;;;;;;;11.10;6.43;;;;;;;-2.50;100.00;102732.22;4986902;28;20063;-63
2024/01/28 07:32:39;;;;;;;10.57;5.57;;;;;;;-2.50;100.00;102734.75;4975216;28;20491;-64
2024/01/28 07:35:05;;;;;;;12.23;6.47;;;;;;;-2.53;100.00;102729.34;4987846;28;20041;-63
2024/01/28 07:37:30;;;;;;;11.53;5.60;;;;;;;-2.50;100.00;102722.06;4986424;28;20351;-63
2024/01/28 07:39:55;;;;;;;11.07;6.33;;;;;;;-2.52;100.00;102731.16;4974969;28;20030;-63
2024/01/28 07:42:21;;;;;;;8.97;5.37;;;;;;;-2.51;100.00;102725.34;4973407;28;20065;-63
2024/01/28 07:44:46;;;;;;;11.67;6.23;;;;;;;-2.52;100.00;102728.63;4986967;28;20069;-63
2024/01/28 07:47:11;;;;;;;12.00;5.53;;;;;;;-2.56;100.00;102727.38;4986401;28;20133;-63
2024/01/28 07:49:36;;;;;;;14.00;5.90;;;;;;;-2.55;100.00;102715.53;4981885;28;20034;-63
2024/01/28 07:52:02;;;;;;;15.40;7.20;;;;;;;-2.54;100.00;102717.38;4989815;28;20105;-63
2024/01/28 07:54:27;;;;;;;9.33;6.00;;;;;;;-2.50;100.00;102716.09;4991982;28;20041;-63
2024/01/28 07:56:53;;;;;;;10.00;6.47;;;;;;;-2.51;100.00;102720.25;4999199;28;20060;-63
2024/01/28 07:59:19;;;;;;;11.43;6.70;;;;;;;-2.49;100.00;102718.81;4977743;28;20080;-63
2024/01/28 08:01:44;;;;;;;9.47;6.13;;;;;;;-2.47;100.00;102719.91;4981724;28;20030;-63
2024/01/28 08:04:10;;;;;;;12.10;6.53;;;;;;;-2.46;100.00;102723.31;4985918;28;20541;-63
2024/01/28 08:06:35;;;;;;;15.07;7.23;;;;;;;-2.44;100.00;102721.88;4971221;28;20034;-63
2024/01/28 08:09:00;;;;;;;17.07;7.23;;;;;;;-2.44;100.00;102722.78;4986784;28;20030;-64
2024/01/28 08:11:25;;;;;;;12.73;7.47;;;;;;;-2.42;100.00;102715.34;4985108;28;20510;-63
2024/01/28 08:13:51;;;;;;;10.67;6.57;;;;;;;-2.39;100.00;102722.41;4978664;28;20038;-63
2024/01/28 08:16:16;;;;;;;15.07;7.50;;;;;;;-2.37;100.00;102716.75;4981603;28;20114;-63
2024/01/28 08:18:41;;;;;;;14.60;8.17;;;;;;;-2.35;100.00;102709.31;4986740;28;20038;-63
2024/01/28 08:21:07;;;;;;;11.90;7.70;;;;;;;-2.33;100.00;102711.31;4973494;28;20119;-64
2024/01/28 08:23:35;;;;;;;12.50;8.17;;;;;;;-2.31;100.00;102708.94;4968281;28;20027;-63
2024/01/28 08:26:00;;;;;;;12.87;7.47;;;;;;;-2.26;100.00;102709.47;4978888;28;20105;-63
2024/01/28 08:28:25;;;;;;;10.47;6.90;;;;;;;-2.22;100.00;102706.56;4969649;28;20483;-63
2024/01/28 08:30:51;;;;;;;10.93;6.80;;;;;;;-2.21;100.00;102704.19;4979173;28;20136;-63
2024/01/28 08:33:16;;;;;;;12.93;7.20;;;;;;;-2.17;100.00;102703.81;4974551;28;20057;-63
2024/01/28 08:35:43;;;;;;;15.10;6.70;;;;;;;-2.13;100.00;102700.00;4980677;28;20497;-63
2024/01/28 08:38:09;;;;;;;10.27;6.50;;;;;;;-2.06;100.00;102710.13;4979054;28;20034;-63
2024/01/28 08:40:34;;;;;;;15.83;6.83;;;;;;;-1.89;100.00;102702.59;4978644;28;20049;-63
2024/01/28 08:43:00;;;;;;;11.50;6.83;;;;;;;-1.49;100.00;102699.41;4980575;28;20015;-63
2024/01/28 08:45:25;;;;;;;7.73;6.20;;;;;;;-1.19;100.00;102699.19;4986538;28;20026;-63
2024/01/28 08:47:51;;;;;;;10.73;6.00;;;;;;;-1.04;100.00;102703.41;4979545;28;20050;-63
2024/01/28 08:50:16;;;;;;;8.80;5.33;;;;;;;-0.96;100.00;102699.16;4980833;28;20030;-63
2024/01/28 08:52:42;;;;;;;9.40;6.00;;;;;;;-0.87;100.00;102695.06;4986718;28;20541;-63
2024/01/28 08:55:08;;;;;;;9.40;6.13;;;;;;;-0.67;100.00;102688.69;4983275;28;20098;-63
2024/01/28 08:57:34;;;;;;;13.43;6.13;;;;;;;-0.49;100.00;102697.38;4979098;28;20475;-63
2024/01/28 09:00:00;;;;;;;12.43;5.53;;;;;;;-0.26;100.00;102690.38;4973922;28;20045;-63
2024/01/28 09:02:26;;;;;;;8.77;5.17;;;;;;;-0.05;100.00;102689.19;4978873;28;20042;-63
2024/01/28 09:04:51;;;;;;;10.37;6.10;;;;;;;0.06;100.00;102690.31;4968711;28;20022;-63
2024/01/28 09:07:16;;;;;;;11.00;5.87;;;;;;;0.15;100.00;102690.38;4981696;28;20080;-63
2024/01/28 09:09:42;;;;;;;11.47;5.40;;;;;;;0.28;100.00;102689.09;4982996;28;20038;-63
2024/01/28 09:12:07;;;;;;;12.90;6.60;;;;;;;0.37;100.00;102682.41;4986497;28;20034;-64
2024/01/28 09:14:32;;;;;;;10.23;5.53;;;;;;;0.40;100.00;102685.25;4984723;28;20031;-63
2024/01/28 09:16:58;;;;;;;10.03;5.83;;;;;;;0.43;100.00;102685.56;4985742;28;20038;-63
2024/01/28 09:19:23;;;;;;;8.17;5.20;;;;;;;0.43;100.00;102685.56;4986873;28;20030;-63
2024/01/28 09:21:49;;;;;;;10.77;5.60;;;;;;;0.39;100.00;102688.56;4985812;28;20034;-63
2024/01/28 09:24:15;;;;;;;12.63;5.60;;;;;;;0.39;100.00;102683.47;4983387;28;20033;-63
2024/01/28 09:26:40;;;;;;;10.53;5.10;;;;;;;0.44;100.00;102674.66;4988522;28;20038;-63
2024/01/28 09:29:05;;;;;;;8.53;4.70;;;;;;;0.55;100.00;102679.94;4985793;28;20034;-63
2024/01/28 09:31:31;;;;;;;10.67;5.07;;;;;;;0.55;100.00;102674.84;4986818;28;20022;-63
2024/01/28 09:33:56;;;;;;;9.30;5.13;;;;;;;0.61;100.00;102667.81;4985721;28;20045;-63
2024/01/28 09:36:21;;;;;;;9.43;5.17;;;;;;;0.61;100.00;102675.47;4989463;28;20026;-63
2024/01/28 09:38:46;;;;;;;8.47;5.10;;;;;;;0.63;100.00;102662.88;4975882;28;20022;-63
2024/01/28 09:41:39;;;;;;;8.83;5.33;;;;;;;0.67;100.00;102668.44;4986206;28;20529;-63
2024/01/28 09:44:05;;;;;;;9.17;5.03;;;;;;;0.69;100.00;102664.38;4978071;28;20056;-63
2024/01/28 09:46:30;;;;;;;7.73;4.90;;;;;;;0.72;100.00;102661.22;4985375;28;20034;-63
2024/01/28 09:48:58;;;;;;;11.03;5.40;;;;;;;0.76;100.00;102670.09;4983789;28;20061;-63
2024/01/28 09:51:24;;;;;;;11.03;4.87;;;;;;;0.84;100.00;102674.34;4975328;28;20057;-63
2024/01/28 09:53:49;;;;;;;10.63;5.77;;;;;;;0.88;100.00;102673.91;4979521;28;20039;-63
2024/01/28 09:56:16;;;;;;;5.77;4.57;;;;;;;0.95;100.00;102667.78;4977736;28;20035;-62
2024/01/28 09:58:43;;;;;;;7.27;4.63;;;;;;;1.00;100.00;102671.69;4975316;28;20038;-63
2024/01/28 10:01:12;;;;;;;7.97;4.40;;;;;;;1.10;100.00;102655.63;4975008;28;20026;-63
2024/01/28 10:03:37;;;;;;;11.13;4.53;;;;;;;1.15;100.00;102651.88;4975168;28;20101;-63
2024/01/28 10:06:04;;;;;;;10.73;4.47;;;;;;;1.23;100.00;102652.66;4979481;28;20027;-63
2024/01/28 10:08:30;;;;;;;9.20;4.50;;;;;;;1.31;100.00;102643.22;4978996;28;20538;-63
2024/01/28 10:10:57;;;;;;;6.83;4.23;;;;;;;1.36;100.00;102649.66;4975455;28;20081;-62
2024/01/28 10:13:22;;;;;;;6.37;4.73;;;;;;;1.42;100.00;102645.16;4972848;28;20038;-63
2024/01/28 10:15:57;;;;;;;8.10;4.17;;;;;;;1.52;100.00;102649.53;4985843;28;20394;-65
2024/01/28 10:18:23;;;;;;;10.67;4.90;;;;;;;1.66;100.00;102644.84;4973501;28;20134;-65
2024/01/28 10:20:49;;;;;;;9.40;3.57;;;;;;;1.77;100.00;102651.00;4978160;28;20206;-65
2024/01/28 10:23:15;;;;;;;6.93;3.70;;;;;;;1.92;100.00;102649.06;4977236;28;20021;-64
2024/01/28 10:25:40;;;;;;;5.57;4.40;;;;;;;2.03;100.00;102644.97;4971704;28;20239;-65
2024/01/28 10:28:06;;;;;;;9.40;4.27;;;;;;;2.11;100.00;102648.25;4972970;28;20023;-64
2024/01/28 10:30:33;;;;;;;7.57;3.67;;;;;;;2.23;100.00;102651.97;4980096;28;20540;-65
2024/01/28 10:32:58;;;;;;;8.03;3.40;;;;;;;2.34;100.00;102640.19;4972657;28;20058;-65
2024/01/28 10:35:25;;;;;;;7.63;3.73;;;;;;;2.42;100.00;102638.38;4989715;28;20115;-65
2024/01/28 10:37:55;;;;;;;7.37;3.80;;;;;;;2.47;100.00;102641.34;4991321;28;20030;-65
2024/01/28 10:40:23;;;;;;;5.43;3.50;;;;;;;2.59;100.00;102633.94;4972795;28;20030;-65
2024/01/28 10:42:51;;;;;;;8.93;4.40;;;;;;;2.68;100.00;102645.03;4984430;28;20173;-65
2024/01/28 10:45:19;;;;;;;7.33;3.87;;;;;;;2.75;100.00;102638.84;4984743;28;20080;-65
2024/01/28 10:47:51;;;;;;;5.70;3.93;;;;;;;2.82;100.00;102637.75;4979681;28;20054;-65
2024/01/28 10:50:19;;;;;;;7.30;4.07;;;;;;;2.88;100.00;102623.84;4982741;28;20026;-65
2024/01/28 10:52:46;;;;;;;8.73;3.90;;;;;;;2.97;100.00;102625.44;4975280;28;20623;-65
2024/01/28 10:55:12;;;;;;;7.17;3.93;;;;;;;3.05;100.00;102621.94;4973468;28;20029;-65
2024/01/28 10:57:39;;;;;;;7.03;4.07;;;;;;;3.14;100.00;102623.53;4977547;28;20388;-65
2024/01/28 11:00:06;;;;;;;5.70;4.00;;;;;;;3.22;100.00;102620.03;4973518;28;20035;-65
2024/01/28 11:02:33;;;;;;;5.07;3.93;;;;;;;3.26;100.00;102619.50;4987293;28;20482;-65
2024/01/28 11:04:59;;;;;;;4.57;3.60;;;;;;;3.29;100.00;102612.09;4985071;28;20068;-65